createdAt,value
2018-04-22T00:00:57.112Z,948.48
2018-04-22T00:01:56.927Z,948.40
2018-04-22T00:02:56.835Z,948.46
2018-04-22T00:03:56.745Z,948.44
2018-04-22T00:04:56.737Z,948.38
2018-04-22T00:05:56.564Z,948.41
2018-04-22T00:06:56.470Z,948.41
2018-04-22T00:07:56.497Z,948.38
2018-04-22T00:08:56.291Z,948.39
2018-04-22T00:09:56.228Z,948.39
2018-04-22T00:10:56.107Z,948.35
2018-04-22T00:11:56.020Z,948.37
2018-04-22T00:12:55.928Z,948.36
2018-04-22T00:13:55.839Z,948.32
2018-04-22T00:14:55.869Z,948.32
2018-04-22T00:15:55.654Z,948.32
2018-04-22T00:16:55.577Z,948.31
2018-04-22T00:17:55.474Z,948.30
2018-04-22T00:18:55.384Z,948.29
2018-04-22T00:19:55.323Z,948.26
2018-04-22T00:20:55.203Z,948.26
2018-04-22T00:21:55.204Z,948.26
2018-04-22T00:22:55.019Z,948.25
2018-04-22T00:23:54.928Z,948.23
2018-04-22T00:24:54.868Z,948.26
2018-04-22T00:25:54.751Z,948.22
2018-04-22T00:26:54.656Z,948.22
2018-04-22T00:27:54.566Z,948.21
2018-04-22T00:28:54.569Z,948.18
2018-04-22T00:29:54.385Z,948.19
2018-04-22T00:30:54.320Z,948.20
2018-04-22T00:31:54.202Z,948.15
2018-04-22T00:32:54.111Z,948.16
2018-04-22T00:33:54.031Z,948.18
2018-04-22T00:34:53.929Z,948.19
2018-04-22T00:35:53.960Z,948.14
2018-04-22T00:36:53.746Z,948.14
2018-04-22T00:37:53.658Z,948.12
2018-04-22T00:38:53.567Z,948.14
2018-04-22T00:39:53.477Z,948.11
2018-04-22T00:40:53.412Z,948.14
2018-04-22T00:41:53.416Z,948.13
2018-04-22T00:42:53.204Z,948.11
2018-04-22T00:43:53.110Z,948.11
2018-04-22T00:44:53.019Z,948.10
2018-04-22T00:45:52.965Z,948.10
2018-04-22T00:46:52.836Z,948.10
2018-04-22T00:47:52.748Z,948.07
2018-04-22T00:48:52.656Z,948.07
2018-04-22T00:49:52.565Z,948.03
2018-04-22T00:50:52.476Z,948.04
2018-04-22T00:51:52.413Z,948.03
2018-04-22T00:52:52.293Z,948.05
2018-04-22T00:53:52.202Z,948.02
2018-04-22T00:54:52.109Z,948.01
2018-04-22T00:55:52.545Z,947.99
2018-04-22T00:56:51.962Z,948.00
2018-04-22T00:57:51.837Z,947.94
2018-04-22T00:58:51.746Z,947.97
2018-04-22T00:59:51.656Z,947.96
2018-04-22T01:00:51.563Z,947.92
2018-04-22T01:01:51.507Z,947.87
2018-04-22T01:02:51.382Z,947.89
2018-04-22T01:03:51.292Z,947.85
2018-04-22T01:04:51.199Z,947.86
2018-04-22T01:05:52.046Z,947.83
2018-04-22T01:06:51.021Z,947.83
2018-04-22T01:07:50.954Z,947.82
2018-04-22T01:08:50.848Z,947.81
2018-04-22T01:09:50.745Z,947.82
2018-04-22T01:10:50.653Z,947.80
2018-04-22T01:11:50.564Z,947.83
2018-04-22T01:12:50.504Z,947.84
2018-04-22T01:13:50.379Z,947.83
2018-04-22T01:14:50.292Z,947.83
2018-04-22T01:15:50.196Z,947.80
2018-04-22T01:16:50.112Z,947.80
2018-04-22T01:17:50.047Z,947.84
2018-04-22T01:18:49.923Z,947.81
2018-04-22T01:19:49.833Z,947.78
2018-04-22T01:20:49.740Z,947.79
2018-04-22T01:21:50.552Z,947.79
2018-04-22T01:22:49.599Z,947.79
2018-04-22T01:23:49.472Z,947.80
2018-04-22T01:24:49.377Z,947.77
2018-04-22T01:25:49.288Z,947.79
2018-04-22T01:26:49.199Z,947.79
2018-04-22T01:27:49.105Z,947.79
2018-04-22T01:28:49.043Z,947.80
2018-04-22T01:29:48.941Z,947.81
2018-04-22T01:30:48.834Z,947.79
2018-04-22T01:31:48.743Z,947.76
2018-04-22T01:32:48.652Z,947.77
2018-04-22T01:33:48.590Z,947.75
2018-04-22T01:34:48.469Z,947.77
2018-04-22T01:35:48.377Z,947.76
2018-04-22T01:36:48.284Z,947.78
2018-04-22T01:37:48.193Z,947.80
2018-04-22T01:38:48.134Z,947.75
2018-04-22T01:39:48.015Z,947.75
2018-04-22T01:40:47.921Z,947.77
2018-04-22T01:41:47.833Z,947.74
2018-04-22T01:42:47.740Z,947.77
2018-04-22T01:43:47.678Z,947.79
2018-04-22T01:44:48.059Z,947.77
2018-04-22T01:45:47.467Z,947.77
2018-04-22T01:46:47.377Z,947.75
2018-04-22T01:47:47.282Z,947.74
2018-04-22T01:48:47.225Z,947.73
2018-04-22T01:49:47.100Z,947.76
2018-04-22T01:50:47.022Z,947.75
2018-04-22T01:51:46.916Z,947.75
2018-04-22T01:52:46.829Z,947.76
2018-04-22T01:53:46.767Z,947.74
2018-04-22T01:54:46.647Z,947.80
2018-04-22T01:55:46.553Z,947.76
2018-04-22T01:56:46.460Z,947.71
2018-04-22T01:57:46.371Z,947.71
2018-04-22T01:58:46.401Z,947.68
2018-04-22T01:59:46.193Z,947.64
2018-04-22T02:00:46.097Z,947.64
2018-04-22T02:01:46.006Z,947.63
2018-04-22T02:02:45.914Z,947.66
2018-04-22T02:03:45.850Z,947.63
2018-04-22T02:04:45.732Z,947.66
2018-04-22T02:05:45.735Z,947.65
2018-04-22T02:06:45.551Z,947.58
2018-04-22T02:07:45.458Z,947.63
2018-04-22T02:08:45.397Z,947.63
2018-04-22T02:09:45.272Z,947.61
2018-04-22T02:10:46.063Z,947.61
2018-04-22T02:11:45.090Z,947.61
2018-04-22T02:12:45.090Z,947.64
2018-04-22T02:13:44.936Z,947.62
2018-04-22T02:14:44.817Z,947.59
2018-04-22T02:15:44.725Z,947.60
2018-04-22T02:16:44.636Z,947.58
2018-04-22T02:17:44.543Z,947.63
2018-04-22T02:18:44.452Z,947.59
2018-04-22T02:19:45.115Z,947.58
2018-04-22T02:20:44.268Z,947.60
2018-04-22T02:21:44.179Z,947.58
2018-04-22T02:22:44.085Z,947.61
2018-04-22T02:23:43.997Z,947.60
2018-04-22T02:24:43.934Z,947.60
2018-04-22T02:25:43.815Z,947.58
2018-04-22T02:26:43.814Z,947.61
2018-04-22T02:27:43.629Z,947.57
2018-04-22T02:28:43.539Z,947.56
2018-04-22T02:29:43.476Z,947.54
2018-04-22T02:30:43.353Z,947.53
2018-04-22T02:31:43.261Z,947.52
2018-04-22T02:32:43.174Z,947.53
2018-04-22T02:33:43.179Z,947.51
2018-04-22T02:34:43.018Z,947.50
2018-04-22T02:35:42.898Z,947.48
2018-04-22T02:36:42.806Z,947.48
2018-04-22T02:37:42.715Z,947.50
2018-04-22T02:38:42.623Z,947.47
2018-04-22T02:39:42.561Z,947.46
2018-04-22T02:40:42.440Z,947.42
2018-04-22T02:41:42.350Z,947.42
2018-04-22T02:42:42.258Z,947.46
2018-04-22T02:43:42.165Z,947.41
2018-04-22T02:44:42.105Z,947.43
2018-04-22T02:45:41.981Z,947.40
2018-04-22T02:46:42.618Z,947.35
2018-04-22T02:47:41.806Z,947.36
2018-04-22T02:48:41.720Z,947.36
2018-04-22T02:49:41.648Z,947.33
2018-04-22T02:50:41.525Z,947.35
2018-04-22T02:51:44.069Z,947.32
2018-04-22T02:52:41.343Z,947.32
2018-04-22T02:53:41.253Z,947.30
2018-04-22T02:54:41.190Z,947.28
2018-04-22T02:55:41.069Z,947.28
2018-04-22T02:56:40.978Z,947.29
2018-04-22T02:57:40.889Z,947.27
2018-04-22T02:58:40.794Z,947.26
2018-04-22T02:59:40.736Z,947.29
2018-04-22T03:00:40.615Z,947.30
2018-04-22T03:01:40.521Z,947.28
2018-04-22T03:02:40.429Z,947.27
2018-04-22T03:03:40.340Z,947.30
2018-04-22T03:04:40.275Z,947.23
2018-04-22T03:05:40.157Z,947.25
2018-04-22T03:06:40.062Z,947.29
2018-04-22T03:07:39.973Z,947.25
2018-04-22T03:08:39.884Z,947.29
2018-04-22T03:09:39.819Z,947.26
2018-04-22T03:10:39.696Z,947.23
2018-04-22T03:11:39.606Z,947.25
2018-04-22T03:12:39.517Z,947.26
2018-04-22T03:13:39.423Z,947.22
2018-04-22T03:14:39.360Z,947.27
2018-04-22T03:15:39.243Z,947.23
2018-04-22T03:16:39.153Z,947.23
2018-04-22T03:17:39.065Z,947.20
2018-04-22T03:18:38.968Z,947.25
2018-04-22T03:19:38.909Z,947.22
2018-04-22T03:20:38.786Z,947.21
2018-04-22T03:21:38.696Z,947.20
2018-04-22T03:22:38.604Z,947.22
2018-04-22T03:23:38.622Z,947.19
2018-04-22T03:24:38.455Z,947.17
2018-04-22T03:25:38.333Z,947.18
2018-04-22T03:26:38.240Z,947.17
2018-04-22T03:27:38.164Z,947.16
2018-04-22T03:28:38.060Z,947.14
2018-04-22T03:29:37.971Z,947.13
2018-04-22T03:30:38.003Z,947.10
2018-04-22T03:31:37.789Z,947.11
2018-04-22T03:32:37.696Z,947.09
2018-04-22T03:33:37.607Z,947.11
2018-04-22T03:34:37.517Z,947.14
2018-04-22T03:35:37.457Z,947.09
2018-04-22T03:36:37.337Z,947.11
2018-04-22T03:37:37.338Z,947.12
2018-04-22T03:38:37.152Z,947.13
2018-04-22T03:39:37.063Z,947.14
2018-04-22T03:40:37.002Z,947.14
2018-04-22T03:41:36.880Z,947.13
2018-04-22T03:42:36.810Z,947.10
2018-04-22T03:43:36.700Z,947.14
2018-04-22T03:44:36.611Z,947.11
2018-04-22T03:45:36.548Z,947.12
2018-04-22T03:46:36.425Z,947.13
2018-04-22T03:47:36.336Z,947.10
2018-04-22T03:48:36.247Z,947.10
2018-04-22T03:49:36.155Z,947.07
2018-04-22T03:50:36.096Z,947.08
2018-04-22T03:51:36.063Z,947.10
2018-04-22T03:52:35.885Z,947.10
2018-04-22T03:53:35.791Z,947.09
2018-04-22T03:54:35.702Z,947.11
2018-04-22T03:55:35.647Z,947.08
2018-04-22T03:56:35.521Z,947.07
2018-04-22T03:57:35.431Z,947.11
2018-04-22T03:58:35.341Z,947.15
2018-04-22T03:59:35.247Z,947.16
2018-04-22T04:00:35.190Z,947.12
2018-04-22T04:01:35.068Z,947.13
2018-04-22T04:02:34.973Z,947.16
2018-04-22T04:03:34.887Z,947.16
2018-04-22T04:04:34.795Z,947.16
2018-04-22T04:05:34.747Z,947.19
2018-04-22T04:06:34.613Z,947.18
2018-04-22T04:07:34.522Z,947.21
2018-04-22T04:08:34.429Z,947.20
2018-04-22T04:09:34.339Z,947.17
2018-04-22T04:10:34.275Z,947.22
2018-04-22T04:11:34.159Z,947.24
2018-04-22T04:12:34.072Z,947.17
2018-04-22T04:13:33.976Z,947.19
2018-04-22T04:14:33.884Z,947.17
2018-04-22T04:15:33.827Z,947.18
2018-04-22T04:16:33.704Z,947.14
2018-04-22T04:17:33.613Z,947.10
2018-04-22T04:18:33.525Z,947.12
2018-04-22T04:19:33.433Z,947.11
2018-04-22T04:20:33.370Z,947.16
2018-04-22T04:21:33.255Z,947.11
2018-04-22T04:22:33.160Z,947.11
2018-04-22T04:23:33.072Z,947.12
2018-04-22T04:24:32.981Z,947.11
2018-04-22T04:25:32.926Z,947.10
2018-04-22T04:26:33.645Z,947.10
2018-04-22T04:27:32.709Z,947.12
2018-04-22T04:28:32.617Z,947.08
2018-04-22T04:29:32.528Z,947.11
2018-04-22T04:30:32.437Z,947.12
2018-04-22T04:31:32.381Z,947.08
2018-04-22T04:32:32.255Z,947.10
2018-04-22T04:33:32.168Z,947.09
2018-04-22T04:34:32.074Z,947.10
2018-04-22T04:35:31.983Z,947.11
2018-04-22T04:36:31.923Z,947.12
2018-04-22T04:37:31.810Z,947.09
2018-04-22T04:38:31.715Z,947.11
2018-04-22T04:39:31.624Z,947.13
2018-04-22T04:40:31.531Z,947.08
2018-04-22T04:41:31.470Z,947.06
2018-04-22T04:42:31.356Z,947.07
2018-04-22T04:43:31.275Z,947.05
2018-04-22T04:44:31.170Z,947.06
2018-04-22T04:45:31.079Z,947.07
2018-04-22T04:46:31.018Z,947.08
2018-04-22T04:47:30.900Z,947.04
2018-04-22T04:48:30.810Z,947.04
2018-04-22T04:49:30.722Z,947.06
2018-04-22T04:50:30.631Z,947.08
2018-04-22T04:51:30.566Z,947.06
2018-04-22T04:52:30.446Z,947.07
2018-04-22T04:53:30.357Z,947.13
2018-04-22T04:54:30.267Z,947.10
2018-04-22T04:55:30.179Z,947.07
2018-04-22T04:56:30.119Z,947.14
2018-04-22T04:57:30.008Z,947.13
2018-04-22T04:58:29.910Z,947.12
2018-04-22T04:59:29.817Z,947.17
2018-04-22T05:00:29.729Z,947.17
2018-04-22T05:01:29.669Z,947.19
2018-04-22T05:02:29.551Z,947.23
2018-04-22T05:03:29.458Z,947.18
2018-04-22T05:04:29.368Z,947.19
2018-04-22T05:05:29.278Z,947.23
2018-04-22T05:06:29.221Z,947.24
2018-04-22T05:07:29.098Z,947.22
2018-04-22T05:08:29.009Z,947.24
2018-04-22T05:09:28.920Z,947.23
2018-04-22T05:10:28.830Z,947.20
2018-04-22T05:11:28.774Z,947.23
2018-04-22T05:12:28.651Z,947.23
2018-04-22T05:13:30.098Z,947.27
2018-04-22T05:14:28.576Z,947.25
2018-04-22T05:15:28.385Z,947.26
2018-04-22T05:16:28.298Z,947.22
2018-04-22T05:17:28.237Z,947.27
2018-04-22T05:18:28.116Z,947.24
2018-04-22T05:19:28.030Z,947.27
2018-04-22T05:20:27.942Z,947.25
2018-04-22T05:21:27.854Z,947.23
2018-04-22T05:22:27.794Z,947.31
2018-04-22T05:23:27.677Z,947.29
2018-04-22T05:24:27.590Z,947.31
2018-04-22T05:25:27.504Z,947.32
2018-04-22T05:26:27.414Z,947.31
2018-04-22T05:27:27.351Z,947.28
2018-04-22T05:28:27.348Z,947.35
2018-04-22T05:29:27.149Z,947.35
2018-04-22T05:30:27.063Z,947.34
2018-04-22T05:31:26.973Z,947.33
2018-04-22T05:32:26.916Z,947.34
2018-04-22T05:33:26.801Z,947.35
2018-04-22T05:34:26.711Z,947.36
2018-04-22T05:35:26.719Z,947.40
2018-04-22T05:36:26.579Z,947.39
2018-04-22T05:37:26.480Z,947.36
2018-04-22T05:38:26.362Z,947.35
2018-04-22T05:39:26.273Z,947.40
2018-04-22T05:40:26.204Z,947.40
2018-04-22T05:41:26.108Z,947.38
2018-04-22T05:42:26.134Z,947.45
2018-04-22T05:43:25.927Z,947.44
2018-04-22T05:44:25.841Z,947.46
2018-04-22T05:45:25.752Z,947.50
2018-04-22T05:46:25.668Z,947.51
2018-04-22T05:47:25.610Z,947.50
2018-04-22T05:48:25.494Z,947.46
2018-04-22T05:49:25.500Z,947.52
2018-04-22T05:50:25.321Z,947.52
2018-04-22T05:51:25.240Z,947.47
2018-04-22T05:52:25.175Z,947.48
2018-04-22T05:53:25.062Z,947.51
2018-04-22T05:54:24.971Z,947.50
2018-04-22T05:55:24.888Z,947.53
2018-04-22T05:56:24.892Z,947.52
2018-04-22T05:57:24.750Z,947.54
2018-04-22T05:58:24.629Z,947.49
2018-04-22T05:59:24.545Z,947.48
2018-04-22T06:00:24.463Z,947.49
2018-04-22T06:01:24.374Z,947.52
2018-04-22T06:02:24.317Z,947.52
2018-04-22T06:03:24.289Z,947.51
2018-04-22T06:04:24.116Z,947.50
2018-04-22T06:05:24.033Z,947.51
2018-04-22T06:06:23.941Z,947.51
2018-04-22T06:07:23.934Z,947.54
2018-04-22T06:08:23.774Z,947.55
2018-04-22T06:09:23.699Z,947.56
2018-04-22T06:10:23.702Z,947.64
2018-04-22T06:11:25.115Z,947.58
2018-04-22T06:12:23.460Z,947.57
2018-04-22T06:13:23.343Z,947.67
2018-04-22T06:14:23.263Z,947.75
2018-04-22T06:15:23.173Z,947.85
2018-04-22T06:16:23.088Z,947.86
2018-04-22T06:17:23.164Z,947.79
2018-04-22T06:18:22.917Z,947.73
2018-04-22T06:19:22.830Z,947.67
2018-04-22T06:20:22.746Z,947.80
2018-04-22T06:21:22.661Z,947.87
2018-04-22T06:22:22.608Z,947.86
2018-04-22T06:23:22.490Z,947.82
2018-04-22T06:24:22.498Z,947.86
2018-04-22T06:25:22.319Z,947.82
2018-04-22T06:26:22.233Z,947.83
2018-04-22T06:27:22.152Z,947.83
2018-04-22T06:28:22.154Z,947.81
2018-04-22T06:29:21.980Z,947.92
2018-04-22T06:30:21.894Z,948.01
2018-04-22T06:31:21.903Z,948.09
2018-04-22T06:32:22.673Z,948.18
2018-04-22T06:33:21.669Z,948.22
2018-04-22T06:34:21.569Z,948.30
2018-04-22T06:35:21.472Z,948.51
2018-04-22T06:36:21.394Z,948.65
2018-04-22T06:37:21.307Z,948.85
2018-04-22T06:38:21.343Z,948.92
2018-04-22T06:39:21.137Z,948.86
2018-04-22T06:40:21.106Z,948.84
2018-04-22T06:41:20.972Z,948.93
2018-04-22T06:42:20.885Z,949.02
2018-04-22T06:43:20.830Z,948.99
2018-04-22T06:44:20.808Z,949.03
2018-04-22T06:45:20.631Z,949.21
2018-04-22T06:46:20.548Z,949.37
2018-04-22T06:47:20.463Z,949.62
2018-04-22T06:48:20.412Z,950.47
2018-04-22T06:49:21.177Z,951.54
2018-04-22T06:50:20.215Z,952.50
2018-04-22T06:51:20.139Z,955.41
2018-04-22T06:52:20.141Z,955.49
2018-04-22T06:53:20.045Z,955.34
2018-04-22T06:54:19.882Z,961.16
2018-04-22T06:55:19.798Z,961.47
2018-04-22T06:56:19.727Z,961.78
2018-04-22T06:57:19.636Z,962.37
2018-04-22T06:58:19.580Z,961.60
2018-04-22T06:59:19.468Z,960.91
2018-04-22T07:00:19.384Z,962.74
2018-04-22T07:01:19.307Z,961.92
2018-04-22T07:02:19.219Z,959.52
2018-04-22T07:03:19.169Z,957.34
2018-04-22T07:04:19.054Z,956.85
2018-04-22T07:05:18.972Z,959.15
2018-04-22T07:06:18.892Z,958.96
2018-04-22T07:07:18.807Z,958.62
2018-04-22T07:08:18.755Z,958.13
2018-04-22T07:09:18.646Z,956.55
2018-04-22T07:10:18.559Z,957.20
2018-04-22T07:11:18.483Z,957.78
2018-04-22T07:12:18.399Z,957.02
2018-04-22T07:13:18.343Z,956.35
2018-04-22T07:14:18.232Z,955.87
2018-04-22T07:15:18.153Z,954.86
2018-04-22T07:16:18.069Z,954.58
2018-04-22T07:17:17.988Z,954.55
2018-04-22T07:18:17.933Z,954.47
2018-04-22T07:19:17.875Z,954.41
2018-04-22T07:20:17.756Z,954.82
2018-04-22T07:21:17.660Z,954.86
2018-04-22T07:22:17.574Z,954.43
2018-04-22T07:23:17.531Z,953.68
2018-04-22T07:24:17.440Z,953.05
2018-04-22T07:25:17.328Z,952.96
2018-04-22T07:26:17.246Z,952.81
2018-04-22T07:27:17.162Z,952.23
2018-04-22T07:28:17.121Z,952.21
2018-04-22T07:29:17.037Z,952.46
2018-04-22T07:30:16.915Z,952.28
2018-04-22T07:31:16.847Z,951.99
2018-04-22T07:32:16.756Z,951.56
2018-04-22T07:33:16.705Z,951.40
2018-04-22T07:34:16.591Z,951.32
2018-04-22T07:35:16.510Z,951.42
2018-04-22T07:36:16.424Z,951.51
2018-04-22T07:37:16.342Z,951.38
2018-04-22T07:38:16.287Z,951.04
2018-04-22T07:39:16.179Z,950.89
2018-04-22T07:40:16.097Z,950.91
2018-04-22T07:41:16.015Z,950.92
2018-04-22T07:42:15.931Z,950.97
2018-04-22T07:43:15.877Z,951.09
2018-04-22T07:44:15.772Z,951.14
2018-04-22T07:45:15.691Z,951.11
2018-04-22T07:46:15.604Z,951.00
2018-04-22T07:47:15.522Z,950.97
2018-04-22T07:48:15.445Z,951.08
2018-04-22T07:49:15.388Z,951.14
2018-04-22T07:50:15.278Z,951.16
2018-04-22T07:51:15.195Z,951.11
2018-04-22T07:52:15.116Z,951.09
2018-04-22T07:53:15.035Z,951.02
2018-04-22T07:54:14.983Z,950.84
2018-04-22T07:55:14.872Z,950.78
2018-04-22T07:56:14.791Z,950.80
2018-04-22T07:57:14.708Z,950.78
2018-04-22T07:58:14.629Z,950.79
2018-04-22T07:59:14.577Z,950.79
2018-04-22T08:00:14.463Z,950.77
2018-04-22T08:01:14.382Z,950.84
2018-04-22T08:02:14.299Z,950.78
2018-04-22T08:03:14.221Z,950.76
2018-04-22T08:04:14.173Z,950.81
2018-04-22T08:05:14.059Z,951.14
2018-04-22T08:06:13.977Z,953.38
2018-04-22T08:07:13.895Z,955.35
2018-04-22T08:08:13.817Z,954.08
2018-04-22T08:09:13.762Z,953.43
2018-04-22T08:10:13.654Z,953.55
2018-04-22T08:11:13.573Z,953.74
2018-04-22T08:12:13.491Z,953.28
2018-04-22T08:13:13.409Z,953.84
2018-04-22T08:14:13.358Z,954.81
2018-04-22T08:15:13.346Z,952.83
2018-04-22T08:16:13.171Z,950.38
2018-04-22T08:17:13.088Z,949.58
2018-04-22T08:18:13.006Z,949.45
2018-04-22T08:19:12.957Z,949.35
2018-04-22T08:20:12.845Z,949.28
2018-04-22T08:21:12.768Z,949.37
2018-04-22T08:22:12.780Z,949.65
2018-04-22T08:23:12.606Z,949.59
2018-04-22T08:24:12.558Z,949.47
2018-04-22T08:25:12.446Z,949.11
2018-04-22T08:26:12.362Z,948.94
2018-04-22T08:27:12.286Z,948.93
2018-04-22T08:28:12.262Z,948.86
2018-04-22T08:29:12.153Z,948.82
2018-04-22T08:30:12.046Z,948.80
2018-04-22T08:31:11.964Z,948.69
2018-04-22T08:32:11.886Z,948.61
2018-04-22T08:33:11.809Z,948.54
2018-04-22T08:34:11.760Z,948.48
2018-04-22T08:35:11.746Z,948.47
2018-04-22T08:36:11.570Z,948.46
2018-04-22T08:37:11.491Z,948.42
2018-04-22T08:38:11.412Z,948.41
2018-04-22T08:39:11.384Z,948.38
2018-04-22T08:40:11.253Z,948.34
2018-04-22T08:41:11.175Z,948.30
2018-04-22T08:42:11.094Z,948.30
2018-04-22T08:43:11.018Z,948.29
2018-04-22T08:44:10.973Z,948.22
2018-04-22T08:45:10.857Z,948.22
2018-04-22T08:46:10.782Z,948.21
2018-04-22T08:47:10.700Z,948.23
2018-04-22T08:48:10.624Z,948.16
2018-04-22T08:49:10.574Z,948.20
2018-04-22T08:50:10.467Z,948.16
2018-04-22T08:51:10.388Z,948.15
2018-04-22T08:52:11.222Z,948.16
2018-04-22T08:53:10.229Z,948.15
2018-04-22T08:54:10.152Z,948.21
2018-04-22T08:55:10.200Z,948.11
2018-04-22T08:56:10.000Z,948.07
2018-04-22T08:57:09.916Z,948.08
2018-04-22T08:58:09.837Z,948.09
2018-04-22T08:59:09.769Z,948.10
2018-04-22T09:00:09.711Z,948.09
2018-04-22T09:01:09.692Z,948.08
2018-04-22T09:02:09.544Z,948.04
2018-04-22T09:03:09.447Z,948.13
2018-04-22T09:04:09.373Z,948.07
2018-04-22T09:05:09.317Z,948.08
2018-04-22T09:06:09.210Z,948.07
2018-04-22T09:07:09.134Z,948.01
2018-04-22T09:08:09.053Z,947.97
2018-04-22T09:09:08.974Z,948.00
2018-04-22T09:10:09.293Z,947.99
2018-04-22T09:11:08.815Z,947.96
2018-04-22T09:12:08.736Z,947.94
2018-04-22T09:13:08.660Z,947.87
2018-04-22T09:14:08.581Z,947.90
2018-04-22T09:15:08.535Z,947.89
2018-04-22T09:16:08.423Z,947.89
2018-04-22T09:17:08.347Z,947.91
2018-04-22T09:18:09.232Z,947.93
2018-04-22T09:19:08.190Z,947.86
2018-04-22T09:20:08.149Z,947.87
2018-04-22T09:21:08.036Z,947.92
2018-04-22T09:22:07.956Z,947.97
2018-04-22T09:23:07.881Z,947.90
2018-04-22T09:24:07.802Z,947.96
2018-04-22T09:25:07.757Z,947.93
2018-04-22T09:26:07.650Z,947.90
2018-04-22T09:27:07.572Z,947.92
2018-04-22T09:28:07.494Z,947.84
2018-04-22T09:29:07.416Z,947.83
2018-04-22T09:30:08.191Z,947.75
2018-04-22T09:31:07.263Z,947.74
2018-04-22T09:32:07.187Z,947.70
2018-04-22T09:33:07.115Z,947.71
2018-04-22T09:34:07.035Z,947.71
2018-04-22T09:35:06.984Z,947.66
2018-04-22T09:36:06.880Z,947.68
2018-04-22T09:37:06.802Z,947.63
2018-04-22T09:38:06.726Z,947.67
2018-04-22T09:39:06.648Z,947.67
2018-04-22T09:40:06.608Z,947.63
2018-04-22T09:41:07.245Z,947.64
2018-04-22T09:42:06.416Z,947.63
2018-04-22T09:43:06.356Z,947.61
2018-04-22T09:44:06.364Z,947.59
2018-04-22T09:45:06.216Z,947.60
2018-04-22T09:46:06.114Z,947.56
2018-04-22T09:47:06.039Z,947.58
2018-04-22T09:48:05.959Z,947.60
2018-04-22T09:49:05.884Z,947.62
2018-04-22T09:50:05.840Z,947.60
2018-04-22T09:51:05.842Z,947.60
2018-04-22T09:52:05.656Z,947.65
2018-04-22T09:53:05.578Z,947.66
2018-04-22T09:54:05.504Z,947.63
2018-04-22T09:55:05.456Z,947.64
2018-04-22T09:56:05.353Z,947.61
2018-04-22T09:57:06.234Z,947.60
2018-04-22T09:58:05.289Z,947.56
2018-04-22T09:59:05.126Z,947.62
2018-04-22T10:00:05.082Z,947.60
2018-04-22T10:01:05.699Z,947.61
2018-04-22T10:02:04.897Z,947.60
2018-04-22T10:03:04.824Z,947.62
2018-04-22T10:04:05.700Z,947.60
2018-04-22T10:05:04.778Z,947.62
2018-04-22T10:06:04.628Z,947.62
2018-04-22T10:07:04.520Z,947.62
2018-04-22T10:08:04.447Z,947.68
2018-04-22T10:09:04.370Z,947.66
2018-04-22T10:10:04.299Z,947.67
2018-04-22T10:11:04.345Z,947.68
2018-04-22T10:12:04.147Z,947.67
2018-04-22T10:13:04.071Z,947.69
2018-04-22T10:14:03.997Z,947.66
2018-04-22T10:15:03.924Z,947.67
2018-04-22T10:16:03.875Z,947.62
2018-04-22T10:17:03.773Z,947.64
2018-04-22T10:18:03.695Z,947.64
2018-04-22T10:19:03.624Z,947.69
2018-04-22T10:20:03.553Z,947.71
2018-04-22T10:21:03.504Z,947.68
2018-04-22T10:22:03.403Z,947.66
2018-04-22T10:23:03.333Z,947.65
2018-04-22T10:24:03.248Z,947.66
2018-04-22T10:25:03.175Z,947.67
2018-04-22T10:26:03.128Z,947.65
2018-04-22T10:27:03.028Z,947.67
2018-04-22T10:28:02.954Z,947.72
2018-04-22T10:29:02.877Z,947.70
2018-04-22T10:30:02.804Z,947.68
2018-04-22T10:31:02.760Z,947.68
2018-04-22T10:32:03.211Z,947.69
2018-04-22T10:33:02.578Z,947.68
2018-04-22T10:34:02.505Z,947.66
2018-04-22T10:35:02.429Z,947.59
2018-04-22T10:36:02.416Z,947.58
2018-04-22T10:37:02.280Z,947.60
2018-04-22T10:38:02.207Z,947.55
2018-04-22T10:39:02.139Z,947.49
2018-04-22T10:40:02.079Z,947.48
2018-04-22T10:41:02.016Z,947.52
2018-04-22T10:42:01.928Z,947.48
2018-04-22T10:43:01.839Z,947.47
2018-04-22T10:44:01.765Z,947.48
2018-04-22T10:45:01.694Z,947.48
2018-04-22T10:46:01.641Z,947.50
2018-04-22T10:47:01.540Z,947.55
2018-04-22T10:48:01.469Z,947.60
2018-04-22T10:49:01.396Z,947.53
2018-04-22T10:50:01.317Z,947.53
2018-04-22T10:51:01.276Z,947.54
2018-04-22T10:52:01.172Z,947.50
2018-04-22T10:53:01.096Z,947.51
2018-04-22T10:54:01.024Z,947.53
2018-04-22T10:55:00.955Z,947.55
2018-04-22T10:56:00.910Z,947.54
2018-04-22T10:57:00.804Z,947.47
2018-04-22T10:58:00.757Z,947.50
2018-04-22T10:59:00.653Z,947.46
2018-04-22T11:00:00.581Z,947.41
2018-04-22T11:01:00.534Z,947.42
2018-04-22T11:02:00.496Z,947.38
2018-04-22T11:03:00.358Z,947.41
2018-04-22T11:04:00.285Z,947.36
2018-04-22T11:05:00.239Z,947.31
2018-04-22T11:06:00.168Z,947.25
2018-04-22T11:07:00.075Z,947.23
2018-04-22T11:07:59.993Z,947.21
2018-04-22T11:08:59.916Z,947.27
2018-04-22T11:09:59.849Z,947.24
2018-04-22T11:10:59.798Z,947.17
2018-04-22T11:11:59.696Z,947.08
2018-04-22T11:12:59.621Z,947.08
2018-04-22T11:14:01.236Z,947.00
2018-04-22T11:14:59.475Z,947.11
2018-04-22T11:15:59.400Z,947.04
2018-04-22T11:16:59.354Z,946.96
2018-04-22T11:17:59.788Z,946.99
2018-04-22T11:18:59.199Z,946.99
2018-04-22T11:19:59.101Z,946.98
2018-04-22T11:20:59.031Z,946.98
2018-04-22T11:21:58.986Z,946.95
2018-04-22T11:22:58.881Z,946.89
2018-04-22T11:23:58.802Z,946.80
2018-04-22T11:24:58.729Z,946.92
2018-04-22T11:25:58.656Z,946.93
2018-04-22T11:26:58.613Z,946.89
2018-04-22T11:27:58.598Z,946.85
2018-04-22T11:28:58.429Z,946.80
2018-04-22T11:29:58.358Z,946.80
2018-04-22T11:30:58.283Z,946.83
2018-04-22T11:31:58.239Z,946.71
2018-04-22T11:32:58.136Z,946.43
2018-04-22T11:33:58.062Z,946.80
2018-04-22T11:34:58.080Z,946.72
2018-04-22T11:35:57.914Z,946.67
2018-04-22T11:36:57.873Z,946.72
2018-04-22T11:37:57.765Z,946.69
2018-04-22T11:38:57.691Z,946.70
2018-04-22T11:39:57.619Z,946.67
2018-04-22T11:40:58.241Z,946.67
2018-04-22T11:41:57.618Z,946.65
2018-04-22T11:42:57.398Z,946.57
2018-04-22T11:43:57.328Z,946.59
2018-04-22T11:44:57.259Z,946.58
2018-04-22T11:45:57.182Z,946.60
2018-04-22T11:46:57.135Z,946.62
2018-04-22T11:47:57.030Z,946.52
2018-04-22T11:48:57.052Z,946.49
2018-04-22T11:49:56.887Z,946.48
2018-04-22T11:50:56.814Z,946.41
2018-04-22T11:51:56.770Z,946.39
2018-04-22T11:52:56.669Z,946.39
2018-04-22T11:53:56.593Z,946.39
2018-04-22T11:54:56.519Z,946.34
2018-04-22T11:55:56.542Z,946.33
2018-04-22T11:56:56.420Z,946.02
2018-04-22T11:57:56.300Z,946.28
2018-04-22T11:58:56.233Z,946.07
2018-04-22T11:59:56.198Z,946.07
2018-04-22T12:00:56.081Z,945.96
2018-04-22T12:01:56.039Z,945.93
2018-04-22T12:02:56.027Z,945.92
2018-04-22T12:03:55.863Z,946.30
2018-04-22T12:04:55.786Z,946.25
2018-04-22T12:05:55.723Z,946.28
2018-04-22T12:06:55.663Z,946.29
2018-04-22T12:07:55.563Z,946.28
2018-04-22T12:08:55.485Z,946.28
2018-04-22T12:09:55.524Z,946.26
2018-04-22T12:10:55.337Z,946.01
2018-04-22T12:11:55.290Z,946.09
2018-04-22T12:12:55.754Z,945.87
2018-04-22T12:13:55.109Z,946.24
2018-04-22T12:14:55.035Z,946.29
2018-04-22T12:15:54.961Z,946.18
2018-04-22T12:16:55.015Z,946.27
2018-04-22T12:17:54.813Z,946.28
2018-04-22T12:18:54.736Z,946.33
2018-04-22T12:19:54.661Z,946.36
2018-04-22T12:20:54.589Z,946.48
2018-04-22T12:21:54.537Z,945.90
2018-04-22T12:22:54.537Z,945.91
2018-04-22T12:23:54.363Z,945.88
2018-04-22T12:24:54.288Z,945.92
2018-04-22T12:25:54.213Z,945.93
2018-04-22T12:26:54.164Z,945.90
2018-04-22T12:27:54.064Z,945.89